sensor_id;sensor_type;location;lat;lon;timestamp;pressure;altitude;pressure_sealevel;temperature;humidity
58771;BME280;44539;42.962;1.596;2023-02-18T08:46:18;98390.53;;;2.22;100.00
58771;BME280;44539;42.962;1.596;2023-02-18T08:48:44;98396.13;;;2.59;100.00
58771;BME280;44539;42.962;1.596;2023-02-18T08:51:17;98407.72;;;2.83;100.00
58771;BME280;44539;42.962;1.596;2023-02-18T08:53:44;98404.09;;;3.13;100.00
58771;BME280;44539;42.962;1.596;2023-02-18T08:56:12;98399.28;;;3.74;100.00
58771;BME280;44539;42.962;1.596;2023-02-18T08:58:39;98391.97;;;4.05;98.49
58771;BME280;44539;42.962;1.596;2023-02-18T09:01:06;98395.22;;;4.08;99.38
58771;BME280;44539;42.962;1.596;2023-02-18T09:03:32;98394.09;;;4.13;100.00
58771;BME280;44539;42.962;1.596;2023-02-18T09:05:59;98387.34;;;4.21;100.00
58771;BME280;44539;42.962;1.596;2023-02-18T09:08:25;98388.91;;;4.49;97.91
58771;BME280;44539;42.962;1.596;2023-02-18T09:10:58;98389.53;;;4.66;94.55
58771;BME280;44539;42.962;1.596;2023-02-18T09:13:24;98391.22;;;4.67;99.87
58771;BME280;44539;42.962;1.596;2023-02-18T09:16:00;98386.22;;;5.25;94.91
58771;BME280;44539;42.962;1.596;2023-02-18T09:18:27;98383.81;;;5.46;93.42
58771;BME280;44539;42.962;1.596;2023-02-18T09:20:56;98382.00;;;5.70;88.97
58771;BME280;44539;42.962;1.596;2023-02-18T09:23:22;98388.97;;;6.18;86.25
58771;BME280;44539;42.962;1.596;2023-02-18T09:25:48;98382.53;;;6.33;85.30
58771;BME280;44539;42.962;1.596;2023-02-18T09:28:13;98382.81;;;6.53;81.42
58771;BME280;44539;42.962;1.596;2023-02-18T09:30:39;98385.31;;;6.66;81.87
58771;BME280;44539;42.962;1.596;2023-02-18T09:33:04;98387.81;;;6.67;82.71
58771;BME280;44539;42.962;1.596;2023-02-18T09:35:30;98379.06;;;6.67;84.45
58771;BME280;44539;42.962;1.596;2023-02-18T09:37:56;98386.38;;;6.97;78.76
58771;BME280;44539;42.962;1.596;2023-02-18T09:40:28;98378.03;;;7.24;77.01
58771;BME280;44539;42.962;1.596;2023-02-18T09:42:56;98378.22;;;7.44;77.17
58771;BME280;44539;42.962;1.596;2023-02-18T09:45:22;98382.00;;;7.62;74.04
58771;BME280;44539;42.962;1.596;2023-02-18T09:47:49;98375.06;;;7.82;74.19
58771;BME280;44539;42.962;1.596;2023-02-18T09:50:21;98370.91;;;7.89;76.83
58771;BME280;44539;42.962;1.596;2023-02-18T09:52:48;98369.16;;;7.78;76.82
58771;BME280;44539;42.962;1.596;2023-02-18T09:55:27;98367.44;;;7.89;74.86
58771;BME280;44539;42.962;1.596;2023-02-18T09:57:57;98367.13;;;8.03;75.13
58771;BME280;44539;42.962;1.596;2023-02-18T10:00:29;98365.31;;;8.25;74.50
58771;BME280;44539;42.962;1.596;2023-02-18T10:03:12;98357.03;;;8.39;73.14
58771;BME280;44539;42.962;1.596;2023-02-18T10:05:44;98356.16;;;8.50;73.10
58771;BME280;44539;42.962;1.596;2023-02-18T10:08:32;98353.41;;;8.61;68.82
58771;BME280;44539;42.962;1.596;2023-02-18T10:11:00;98349.28;;;8.78;70.54
58771;BME280;44539;42.962;1.596;2023-02-18T10:13:29;98349.03;;;8.91;70.12
58771;BME280;44539;42.962;1.596;2023-02-18T10:15:54;98352.69;;;8.99;71.21
58771;BME280;44539;42.962;1.596;2023-02-18T10:18:58;98341.72;;;9.33;65.73
58771;BME280;44539;42.962;1.596;2023-02-18T10:21:30;98339.66;;;9.56;62.16
58771;BME280;44539;42.962;1.596;2023-02-18T10:24:31;98336.84;;;9.77;59.77
58771;BME280;44539;42.962;1.596;2023-02-18T10:26:58;98328.88;;;9.97;58.49
58771;BME280;44539;42.962;1.596;2023-02-18T10:29:25;98324.06;;;10.20;57.66
58771;BME280;44539;42.962;1.596;2023-02-18T10:37:27;98321.06;;;10.80;53.39
58771;BME280;44539;42.962;1.596;2023-02-18T10:50:43;98301.28;;;11.64;51.98
58771;BME280;44539;42.962;1.596;2023-02-18T10:53:28;98303.19;;;11.72;52.00
58771;BME280;44539;42.962;1.596;2023-02-18T10:55:55;98294.91;;;11.93;51.22
58771;BME280;44539;42.962;1.596;2023-02-18T11:00:55;98290.06;;;12.22;50.41
58771;BME280;44539;42.962;1.596;2023-02-18T11:03:23;98293.66;;;12.31;50.23
58771;BME280;44539;42.962;1.596;2023-02-18T11:05:54;98288.88;;;12.43;50.05
58771;BME280;44539;42.962;1.596;2023-02-18T11:08:25;98288.28;;;12.57;51.27
58771;BME280;44539;42.962;1.596;2023-02-18T11:10:51;98283.00;;;12.74;51.68
58771;BME280;44539;42.962;1.596;2023-02-18T11:13:25;98272.91;;;12.94;49.74
58771;BME280;44539;42.962;1.596;2023-02-18T11:23:49;98267.50;;;13.61;47.69
58771;BME280;44539;42.962;1.596;2023-02-18T11:26:16;98267.66;;;13.76;48.14
58771;BME280;44539;42.962;1.596;2023-02-18T11:28:47;98261.97;;;13.95;48.06
58771;BME280;44539;42.962;1.596;2023-02-18T11:31:21;98262.28;;;14.17;47.90
58771;BME280;44539;42.962;1.596;2023-02-18T11:33:50;98258.72;;;14.33;46.81
58771;BME280;44539;42.962;1.596;2023-02-18T11:36:28;98254.03;;;14.35;50.75
58771;BME280;44539;42.962;1.596;2023-02-18T11:38:55;98243.31;;;14.43;50.79
58771;BME280;44539;42.962;1.596;2023-02-18T11:41:40;98247.88;;;14.74;51.15
58771;BME280;44539;42.962;1.596;2023-02-18T11:47:00;98232.41;;;14.61;52.78
58771;BME280;44539;42.962;1.596;2023-02-18T11:49:27;98234.34;;;14.75;53.20
58771;BME280;44539;42.962;1.596;2023-02-18T11:51:54;98222.63;;;14.76;54.01
58771;BME280;44539;42.962;1.596;2023-02-18T11:54:30;98222.41;;;14.86;54.83
58771;BME280;44539;42.962;1.596;2023-02-18T11:57:05;98222.53;;;14.93;54.71
58771;BME280;44539;42.962;1.596;2023-02-18T11:59:34;98222.13;;;15.04;54.40
58771;BME280;44539;42.962;1.596;2023-02-18T12:07:48;98195.97;;;15.37;55.47
58771;BME280;44539;42.962;1.596;2023-02-18T12:10:35;98189.47;;;15.55;54.42
58771;BME280;44539;42.962;1.596;2023-02-18T12:13:25;98191.47;;;15.76;54.35
58771;BME280;44539;42.962;1.596;2023-02-18T12:27:55;98176.63;;;15.88;53.66
58771;BME280;44539;42.962;1.596;2023-02-18T12:44:12;98144.91;;;16.58;52.11
58771;BME280;44539;42.962;1.596;2023-02-18T13:08:58;98108.97;;;17.73;46.99
58771;BME280;44539;42.962;1.596;2023-02-18T13:14:15;98108.97;;;18.01;46.15
58771;BME280;44539;42.962;1.596;2023-02-18T13:16:45;98104.72;;;18.20;44.80
58771;BME280;44539;42.962;1.596;2023-02-18T13:19:22;98105.44;;;18.49;44.88
58771;BME280;44539;42.962;1.596;2023-02-18T13:21:53;98093.41;;;18.38;44.03
58771;BME280;44539;42.962;1.596;2023-02-18T13:24:30;98096.38;;;18.70;43.66
58771;BME280;44539;42.962;1.596;2023-02-18T13:27:18;98088.38;;;19.03;42.21
58771;BME280;44539;42.962;1.596;2023-02-18T13:35:20;98066.84;;;19.30;38.17
58771;BME280;44539;42.962;1.596;2023-02-18T13:40:29;98062.25;;;19.57;40.01
58771;BME280;44539;42.962;1.596;2023-02-18T13:54:18;98040.88;;;20.66;38.56
58771;BME280;44539;42.962;1.596;2023-02-18T13:56:49;98043.78;;;20.64;38.63
58771;BME280;44539;42.962;1.596;2023-02-18T14:01:51;98041.78;;;20.85;38.77
58771;BME280;44539;42.962;1.596;2023-02-18T14:04:48;98046.09;;;21.43;37.54
58771;BME280;44539;42.962;1.596;2023-02-18T14:10:05;98032.59;;;21.98;36.22
58771;BME280;44539;42.962;1.596;2023-02-18T14:26:07;98026.63;;;22.56;35.97
58771;BME280;44539;42.962;1.596;2023-02-18T14:33:39;98024.81;;;22.92;35.04
58771;BME280;44539;42.962;1.596;2023-02-18T14:49:48;98023.56;;;23.77;34.21
58771;BME280;44539;42.962;1.596;2023-02-18T14:54:56;98009.59;;;23.74;34.71
58771;BME280;44539;42.962;1.596;2023-02-18T14:57:42;98015.03;;;23.74;35.21
58771;BME280;44539;42.962;1.596;2023-02-18T15:00:24;98020.84;;;23.77;35.34
58771;BME280;44539;42.962;1.596;2023-02-18T15:02:52;98015.50;;;23.94;35.10
58771;BME280;44539;42.962;1.596;2023-02-18T15:05:27;98008.81;;;24.14;34.87
58771;BME280;44539;42.962;1.596;2023-02-18T15:08:05;98008.78;;;23.73;35.07
58771;BME280;44539;42.962;1.596;2023-02-18T15:10:38;98016.47;;;23.53;35.19
58771;BME280;44539;42.962;1.596;2023-02-18T15:13:12;98015.03;;;23.74;35.35
58771;BME280;44539;42.962;1.596;2023-02-18T15:15:40;98007.53;;;24.04;34.47
58771;BME280;44539;42.962;1.596;2023-02-18T15:18:20;98007.72;;;23.74;34.81
58771;BME280;44539;42.962;1.596;2023-02-18T15:20:48;98013.41;;;23.73;34.26
58771;BME280;44539;42.962;1.596;2023-02-18T15:23:15;98015.16;;;23.91;34.42
58771;BME280;44539;42.962;1.596;2023-02-18T15:25:49;98006.72;;;24.04;35.12
58771;BME280;44539;42.962;1.596;2023-02-18T15:28:26;98011.91;;;24.05;35.56
58771;BME280;44539;42.962;1.596;2023-02-18T15:30:52;98005.38;;;24.18;35.22
58771;BME280;44539;42.962;1.596;2023-02-18T15:33:20;98004.19;;;24.72;34.04
58771;BME280;44539;42.962;1.596;2023-02-18T15:35:45;98007.34;;;24.97;33.38
58771;BME280;44539;42.962;1.596;2023-02-18T15:38:17;98001.75;;;25.21;33.40
58771;BME280;44539;42.962;1.596;2023-02-18T15:40:45;98009.13;;;24.92;34.62
58771;BME280;44539;42.962;1.596;2023-02-18T15:43:15;97995.47;;;25.03;33.82
58771;BME280;44539;42.962;1.596;2023-02-18T15:45:44;97998.53;;;24.90;34.47
58771;BME280;44539;42.962;1.596;2023-02-18T15:48:45;98009.47;;;24.95;34.68
58771;BME280;44539;42.962;1.596;2023-02-18T15:51:13;97993.91;;;25.08;33.95
58771;BME280;44539;42.962;1.596;2023-02-18T15:53:42;98000.25;;;25.69;33.00
